The Plains, Virginia
Current Conditions -  °F | °C
As of 7:57 AM on Wednesday 26 Nov 2014 (Local Time) from KIAD Reporting Station
Moderate Rain Moderate Rain  
Wind Chill: 32°   Ceiling: 1900
Heat Index: 39°   Visibility: 2.5mi
Dew Point: 37°   Wind: 10mph
Humidity: 93%   Direction: 30°NNE
Pressure: 30.06"   Gusts: NA
Location:  38.86°N, 77.77°W
Report Text: KIAD 261257Z 03009KT 2 1/2SM RA BR SCT007 OVC019 04/03 A3006 RMK AO2 P0002
Loading
Personal Weather Stations






























Interactive Weather Map New forecast layout! Learn more

10-Day Weather Forecast

Advertisements
Track Severe Weather on mobile